createdAt,value
2022-09-11T00:01:03.761Z,15.00
2022-09-11T00:03:32.074Z,13.93
2022-09-11T00:06:04.653Z,13.77
2022-09-11T00:08:32.968Z,14.02
2022-09-11T00:11:05.400Z,13.82
2022-09-11T00:13:33.859Z,13.00
2022-09-11T00:16:03.239Z,14.00
2022-09-11T00:18:31.627Z,15.35
2022-09-11T00:21:00.292Z,14.02
2022-09-11T00:23:30.210Z,14.55
2022-09-11T00:26:03.336Z,13.73
2022-09-11T00:28:31.740Z,13.60
2022-09-11T00:31:00.858Z,13.23
2022-09-11T00:33:29.696Z,12.20
2022-09-11T00:35:59.384Z,12.18
2022-09-11T00:38:28.255Z,13.13
2022-09-11T00:40:59.297Z,13.10
2022-09-11T00:43:28.154Z,12.18
2022-09-11T00:45:59.946Z,12.93
2022-09-11T00:48:30.074Z,11.90
2022-09-11T00:50:59.495Z,13.43
2022-09-11T00:53:30.331Z,13.23
2022-09-11T00:56:02.853Z,13.43
2022-09-11T00:58:34.139Z,13.50
2022-09-11T01:01:03.300Z,13.57
2022-09-11T01:03:32.118Z,14.30
2022-09-11T01:06:01.934Z,13.50
2022-09-11T01:08:30.231Z,14.15
2022-09-11T01:11:06.693Z,14.05
2022-09-11T01:13:37.798Z,14.63
2022-09-11T01:16:09.977Z,14.00
2022-09-11T01:18:41.303Z,14.48
2022-09-11T01:21:20.712Z,14.45
2022-09-11T01:24:04.228Z,13.98
2022-09-11T01:26:39.787Z,15.40
2022-09-11T01:29:14.314Z,12.98
2022-09-11T01:31:45.917Z,14.57
2022-09-11T01:34:17.861Z,13.60
2022-09-11T01:36:48.393Z,14.38
2022-09-11T01:39:20.755Z,13.15
2022-09-11T01:41:50.297Z,13.07
2022-09-11T01:44:23.005Z,15.00
2022-09-11T01:46:53.164Z,13.88
2022-09-11T01:49:23.688Z,13.73
2022-09-11T01:51:53.857Z,11.93
2022-09-11T01:54:23.516Z,13.57
2022-09-11T01:56:53.563Z,13.95
2022-09-11T01:59:26.110Z,13.98
2022-09-11T02:01:56.609Z,13.63
2022-09-11T02:04:27.475Z,13.63
2022-09-11T02:07:02.273Z,13.55
2022-09-11T02:09:33.950Z,13.82
2022-09-11T02:12:04.976Z,13.40
2022-09-11T02:14:38.748Z,14.20
2022-09-11T02:17:10.811Z,14.23
2022-09-11T02:19:39.610Z,15.05
2022-09-11T02:22:08.231Z,14.50
2022-09-11T02:24:36.541Z,15.25
2022-09-11T02:27:06.624Z,15.48
2022-09-11T02:29:36.559Z,17.17
2022-09-11T02:32:05.348Z,17.48
2022-09-11T02:34:35.262Z,17.85
2022-09-11T02:37:12.974Z,18.60
2022-09-11T02:39:57.420Z,18.42
2022-09-11T02:42:36.705Z,18.55
2022-09-11T02:45:12.255Z,18.55
2022-09-11T02:47:44.091Z,19.55
2022-09-11T02:50:15.726Z,22.15
2022-09-11T02:52:49.109Z,25.27
2022-09-11T02:55:20.801Z,23.77
2022-09-11T02:57:53.386Z,24.00
2022-09-11T03:00:23.142Z,26.80
2022-09-11T03:02:53.652Z,28.05
2022-09-11T03:05:23.236Z,28.48
2022-09-11T03:07:51.869Z,30.60
2022-09-11T03:10:20.273Z,28.35
2022-09-11T03:12:48.621Z,30.55
2022-09-11T03:15:17.464Z,29.23
2022-09-11T03:17:47.161Z,28.50
2022-09-11T03:20:15.783Z,31.05
2022-09-11T03:22:44.140Z,30.98
2022-09-11T03:25:12.740Z,32.35
2022-09-11T03:27:42.109Z,29.88
2022-09-11T03:30:11.394Z,28.92
2022-09-11T03:32:39.733Z,30.08
2022-09-11T03:35:10.014Z,30.48
2022-09-11T03:37:38.332Z,29.23
2022-09-11T03:40:07.219Z,31.23
2022-09-11T03:42:35.634Z,28.70
2022-09-11T03:45:04.120Z,30.33
2022-09-11T03:47:32.502Z,30.25
2022-09-11T03:50:00.839Z,28.92
2022-09-11T03:52:31.280Z,31.15
2022-09-11T03:55:00.368Z,31.33
2022-09-11T03:57:28.696Z,30.63
2022-09-11T03:59:57.038Z,28.55
2022-09-11T04:02:25.486Z,30.65
2022-09-11T04:04:53.794Z,31.45
2022-09-11T04:07:22.490Z,30.83
2022-09-11T04:09:52.234Z,31.55
2022-09-11T04:12:20.658Z,32.53
2022-09-11T04:14:50.356Z,32.83
2022-09-11T04:17:19.162Z,32.45
2022-09-11T04:19:47.466Z,36.63
2022-09-11T04:22:15.857Z,36.28
2022-09-11T04:24:44.198Z,40.15
2022-09-11T04:27:13.899Z,41.17
2022-09-11T04:29:43.049Z,41.10
2022-09-11T04:32:11.803Z,40.78
2022-09-11T04:34:40.118Z,36.65
2022-09-11T04:37:08.712Z,40.78
2022-09-11T04:39:37.038Z,45.40
2022-09-11T04:42:05.620Z,44.90
2022-09-11T04:44:35.293Z,43.28
2022-09-11T04:47:03.750Z,41.33
2022-09-11T04:49:33.044Z,43.20
2022-09-11T04:52:02.891Z,39.05
2022-09-11T04:54:31.235Z,43.17
2022-09-11T04:56:59.577Z,42.17
2022-09-11T04:59:27.892Z,40.38
2022-09-11T05:01:57.822Z,43.20
2022-09-11T05:04:26.643Z,42.72
2022-09-11T05:06:55.059Z,46.25
2022-09-11T05:09:24.210Z,44.65
2022-09-11T05:11:52.579Z,44.92
2022-09-11T05:14:20.901Z,44.03
2022-09-11T05:16:49.296Z,45.72
2022-09-11T05:19:19.117Z,47.22
2022-09-11T05:21:48.166Z,47.40
2022-09-11T05:24:16.490Z,47.38
2022-09-11T05:26:45.061Z,46.13
2022-09-11T05:29:15.113Z,49.17
2022-09-11T05:31:43.827Z,48.53
2022-09-11T05:34:12.306Z,49.80
2022-09-11T05:36:42.113Z,47.35
2022-09-11T05:39:11.271Z,45.95
2022-09-11T05:41:39.622Z,47.92
2022-09-11T05:44:08.003Z,49.53
2022-09-11T05:46:36.345Z,50.45
2022-09-11T05:49:05.791Z,53.78
2022-09-11T05:51:35.917Z,51.53
2022-09-11T05:54:06.058Z,53.30
2022-09-11T05:56:34.474Z,54.60
2022-09-11T05:59:03.451Z,53.55
2022-09-11T06:01:32.147Z,50.42
2022-09-11T06:04:01.790Z,53.78
2022-09-11T06:06:30.137Z,58.28
2022-09-11T06:08:58.475Z,55.70
2022-09-11T06:11:29.331Z,56.75
2022-09-11T06:13:57.656Z,55.40
2022-09-11T06:16:26.369Z,54.45
2022-09-11T06:18:55.262Z,50.55
2022-09-11T06:21:24.555Z,51.17
2022-09-11T06:23:53.991Z,51.15
2022-09-11T06:26:23.723Z,53.58
2022-09-11T06:28:53.695Z,55.90
2022-09-11T06:31:22.954Z,57.85
2022-09-11T06:33:51.346Z,53.85
2022-09-11T06:36:20.403Z,60.70
2022-09-11T06:38:49.104Z,59.88
2022-09-11T06:41:19.121Z,62.42
2022-09-11T06:43:47.475Z,63.05
2022-09-11T06:46:19.067Z,63.35
2022-09-11T06:48:48.245Z,58.65
2022-09-11T06:51:17.502Z,58.83
2022-09-11T06:53:47.390Z,57.08
2022-09-11T06:56:16.700Z,53.65
2022-09-11T06:58:45.292Z,55.38
2022-09-11T07:01:14.481Z,58.30
2022-09-11T07:03:46.059Z,56.53
2022-09-11T07:06:14.826Z,51.88
2022-09-11T07:08:43.242Z,55.35
2022-09-11T07:11:12.897Z,57.33
2022-09-11T07:13:41.917Z,57.28
2022-09-11T07:16:12.155Z,56.72
2022-09-11T07:18:41.412Z,58.50
2022-09-11T07:21:12.363Z,54.33
2022-09-11T07:23:40.770Z,56.92
2022-09-11T07:26:10.839Z,57.40
2022-09-11T07:28:39.536Z,58.42
2022-09-11T07:31:10.605Z,58.47
2022-09-11T07:33:39.388Z,62.35
2022-09-11T07:36:12.095Z,58.95
2022-09-11T07:38:42.814Z,63.22
2022-09-11T07:41:12.205Z,59.20
2022-09-11T07:43:41.849Z,61.78
2022-09-11T07:46:12.149Z,62.45
2022-09-11T07:48:40.915Z,57.80
2022-09-11T07:51:09.851Z,60.85
2022-09-11T07:53:39.410Z,60.22
2022-09-11T07:56:10.398Z,57.45
2022-09-11T07:58:39.573Z,56.33
2022-09-11T08:01:08.873Z,59.05
2022-09-11T08:03:37.883Z,59.53
2022-09-11T08:06:08.048Z,56.80
2022-09-11T08:08:37.761Z,60.83
2022-09-11T08:11:06.988Z,59.95
2022-09-11T08:13:37.149Z,61.28
2022-09-11T08:16:05.723Z,60.08
2022-09-11T08:18:35.261Z,61.42
2022-09-11T08:21:04.567Z,61.85
2022-09-11T08:23:33.236Z,64.22
2022-09-11T08:26:08.213Z,63.47
2022-09-11T08:28:38.629Z,62.78
2022-09-11T08:31:07.573Z,62.50
2022-09-11T08:33:36.019Z,62.17
2022-09-11T08:36:05.259Z,58.13
2022-09-11T08:38:33.954Z,56.75
2022-09-11T08:41:17.772Z,58.42
2022-09-11T08:43:51.901Z,56.58
2022-09-11T08:46:21.977Z,54.58
2022-09-11T08:48:54.247Z,51.65
2022-09-11T08:51:22.655Z,47.45
2022-09-11T08:53:51.494Z,46.17
2022-09-11T08:56:22.864Z,45.15
2022-09-11T08:59:02.817Z,43.85
2022-09-11T09:01:37.176Z,42.03
2022-09-11T09:04:11.616Z,42.15
2022-09-11T09:06:49.644Z,42.50
2022-09-11T09:09:22.859Z,46.50
2022-09-11T09:11:56.843Z,46.95
2022-09-11T09:14:41.783Z,51.60
2022-09-11T09:17:11.728Z,50.33
2022-09-11T09:19:43.233Z,49.28
2022-09-11T09:22:14.931Z,47.85
2022-09-11T09:24:44.528Z,46.22
2022-09-11T09:27:17.625Z,45.65
2022-09-11T09:29:47.816Z,47.10
2022-09-11T09:32:21.024Z,44.42
2022-09-11T09:34:51.281Z,42.83
2022-09-11T09:37:21.654Z,46.38
2022-09-11T09:39:50.338Z,43.45
2022-09-11T09:42:33.522Z,48.25
2022-09-11T09:45:12.551Z,48.28
2022-09-11T09:47:44.521Z,50.00
2022-09-11T09:50:18.388Z,48.47
2022-09-11T09:52:46.852Z,48.33
2022-09-11T09:55:17.179Z,49.22
2022-09-11T09:57:45.817Z,48.53
2022-09-11T10:00:19.822Z,46.50
2022-09-11T10:02:53.687Z,43.92
2022-09-11T10:05:26.118Z,45.03
2022-09-11T10:07:55.761Z,45.47
2022-09-11T10:10:34.873Z,42.05
2022-09-11T10:13:18.728Z,39.90
2022-09-11T10:15:50.013Z,39.28
2022-09-11T10:18:25.333Z,38.42
2022-09-11T10:20:54.770Z,36.72
2022-09-11T10:23:24.459Z,34.20
2022-09-11T10:25:53.466Z,34.50
2022-09-11T10:28:26.603Z,36.28
2022-09-11T10:31:00.297Z,36.13
2022-09-11T10:33:29.978Z,35.55
2022-09-11T10:35:58.809Z,34.70
2022-09-11T10:38:31.356Z,34.83
2022-09-11T10:41:03.768Z,34.55
2022-09-11T10:43:36.143Z,34.97
2022-09-11T10:46:07.016Z,35.92
2022-09-11T10:48:35.560Z,34.92
2022-09-11T10:51:07.548Z,35.70
2022-09-11T10:53:38.173Z,37.00
2022-09-11T10:56:07.054Z,34.50
2022-09-11T10:58:37.588Z,36.55
2022-09-11T11:01:09.548Z,36.58
2022-09-11T11:03:38.289Z,35.20
2022-09-11T11:06:13.640Z,36.20
2022-09-11T11:08:58.758Z,32.33
2022-09-11T11:11:33.410Z,28.10
2022-09-11T11:14:17.413Z,28.80
2022-09-11T11:16:52.411Z,26.83
2022-09-11T11:19:28.782Z,25.92
2022-09-11T11:22:02.814Z,27.17
2022-09-11T11:24:39.404Z,28.30
2022-09-11T11:27:20.259Z,28.92
2022-09-11T11:29:57.361Z,28.73
2022-09-11T11:32:39.399Z,30.38
2022-09-11T11:35:17.590Z,30.38
2022-09-11T11:37:47.432Z,30.40
2022-09-11T11:40:19.537Z,32.70
2022-09-11T11:42:52.837Z,28.75
2022-09-11T11:45:25.861Z,27.90
2022-09-11T11:47:56.738Z,27.98
2022-09-11T11:50:31.617Z,26.55
2022-09-11T11:53:04.540Z,22.65
2022-09-11T11:55:39.952Z,22.17
2022-09-11T11:58:14.171Z,20.23
2022-09-11T12:00:46.227Z,21.10
2022-09-11T12:03:20.137Z,19.80
2022-09-11T12:05:48.621Z,18.85
2022-09-11T12:08:17.711Z,19.30
2022-09-11T12:10:48.814Z,20.52
2022-09-11T12:13:18.467Z,21.60
2022-09-11T12:16:02.681Z,21.55
2022-09-11T12:18:33.165Z,20.00
2022-09-11T12:21:20.033Z,18.77
2022-09-11T12:24:07.263Z,19.50
2022-09-11T12:26:35.600Z,18.42
2022-09-11T12:29:20.249Z,17.35
2022-09-11T12:32:07.729Z,17.23
2022-09-11T12:34:50.903Z,16.85
2022-09-11T12:37:24.758Z,16.20
2022-09-11T12:39:54.480Z,14.77
2022-09-11T12:42:41.216Z,14.50
2022-09-11T12:45:31.450Z,17.58
2022-09-11T12:48:04.956Z,18.70
2022-09-11T12:50:33.740Z,18.17
2022-09-11T12:53:04.599Z,17.45
2022-09-11T12:55:34.654Z,19.25
2022-09-11T12:58:05.228Z,20.27
2022-09-11T13:00:36.612Z,20.08
2022-09-11T13:03:05.833Z,21.98
2022-09-11T13:05:37.785Z,20.65
2022-09-11T13:08:10.969Z,21.52
2022-09-11T13:10:39.975Z,21.75
2022-09-11T13:13:12.723Z,21.13
2022-09-11T13:15:42.322Z,24.23
2022-09-11T13:18:40.580Z,23.40
2022-09-11T13:21:15.674Z,21.70
2022-09-11T13:23:46.724Z,22.15
2022-09-11T13:26:17.008Z,20.70
2022-09-11T13:28:46.921Z,20.02
2022-09-11T13:31:19.446Z,20.10
2022-09-11T13:33:52.014Z,19.80
2022-09-11T13:36:22.944Z,19.40
2022-09-11T13:38:56.177Z,20.08
2022-09-11T13:41:25.848Z,19.27
2022-09-11T13:43:58.273Z,19.85
2022-09-11T13:46:27.929Z,18.20
2022-09-11T13:48:59.253Z,17.98
2022-09-11T13:51:31.310Z,16.35
2022-09-11T13:54:05.962Z,16.00
2022-09-11T13:56:47.003Z,14.73
2022-09-11T13:59:35.244Z,13.95
2022-09-11T14:02:05.028Z,13.15
2022-09-11T14:04:34.099Z,12.43
2022-09-11T14:07:02.857Z,12.82
2022-09-11T14:09:32.586Z,13.38
2022-09-11T14:12:04.063Z,11.95
2022-09-11T14:14:34.201Z,13.82
2022-09-11T14:17:02.723Z,14.48
2022-09-11T14:19:32.178Z,13.95
2022-09-11T14:22:01.250Z,14.63
2022-09-11T14:24:31.658Z,16.25
2022-09-11T14:27:02.361Z,15.13
2022-09-11T14:29:31.515Z,14.20
2022-09-11T14:32:14.709Z,14.77
2022-09-11T14:34:43.060Z,12.75
2022-09-11T14:37:13.283Z,12.93
2022-09-11T14:39:42.431Z,10.65
2022-09-11T14:42:14.662Z,12.93
2022-09-11T14:44:43.685Z,11.95
2022-09-11T14:47:14.831Z,12.43
2022-09-11T14:49:43.208Z,13.23
2022-09-11T14:52:14.468Z,11.68
2022-09-11T14:54:42.936Z,12.23
2022-09-11T14:57:19.818Z,13.63
2022-09-11T14:59:49.117Z,10.85
2022-09-11T15:02:18.986Z,11.38
2022-09-11T15:04:47.425Z,10.48
2022-09-11T15:07:16.515Z,9.65
2022-09-11T15:09:44.993Z,9.70
2022-09-11T15:12:15.818Z,9.90
2022-09-11T15:14:56.621Z,9.75
2022-09-11T15:17:25.995Z,10.80
2022-09-11T15:19:54.352Z,11.25
2022-09-11T15:22:23.227Z,11.32
2022-09-11T15:24:51.633Z,10.80
2022-09-11T15:27:23.257Z,11.27
2022-09-11T15:29:51.586Z,11.52
2022-09-11T15:32:21.218Z,10.52
2022-09-11T15:34:49.636Z,12.57
2022-09-11T15:37:18.179Z,10.93
2022-09-11T15:39:46.550Z,11.93
2022-09-11T15:42:14.934Z,12.15
2022-09-11T15:44:46.071Z,12.43
2022-09-11T15:47:14.512Z,12.35
2022-09-11T15:49:44.369Z,11.10
2022-09-11T15:52:12.738Z,12.32
2022-09-11T15:54:41.113Z,10.55
2022-09-11T15:57:09.464Z,11.40
2022-09-11T15:59:37.841Z,10.60
2022-09-11T16:02:09.120Z,9.73
2022-09-11T16:04:37.530Z,9.93
2022-09-11T16:07:05.847Z,10.25
2022-09-11T16:09:34.497Z,10.05
2022-09-11T16:12:03.521Z,10.30
2022-09-11T16:14:33.301Z,9.25
2022-09-11T16:17:02.355Z,9.68
2022-09-11T16:19:32.308Z,10.75
2022-09-11T16:22:02.066Z,10.60
2022-09-11T16:24:31.530Z,10.75
2022-09-11T16:27:01.620Z,10.98
2022-09-11T16:29:49.330Z,10.35
2022-09-11T16:32:28.510Z,9.40
2022-09-11T16:34:59.878Z,10.93
2022-09-11T16:37:28.584Z,11.00
2022-09-11T16:39:56.990Z,10.77
2022-09-11T16:42:26.495Z,10.20
2022-09-11T16:44:55.015Z,10.55
2022-09-11T16:47:23.340Z,10.05
2022-09-11T16:50:08.446Z,9.85
2022-09-11T16:52:39.063Z,9.15
2022-09-11T16:55:09.400Z,9.80
2022-09-11T16:57:37.902Z,9.10
2022-09-11T17:00:06.832Z,9.65
2022-09-11T17:02:35.190Z,9.93
2022-09-11T17:05:03.694Z,9.55
2022-09-11T17:07:32.037Z,9.43
2022-09-11T17:10:01.823Z,8.85
2022-09-11T17:12:30.189Z,8.85
2022-09-11T17:14:58.916Z,8.73
2022-09-11T17:17:27.254Z,9.02
2022-09-11T17:19:57.728Z,9.10
2022-09-11T17:22:26.180Z,8.80
2022-09-11T17:24:54.573Z,8.57
2022-09-11T17:27:24.401Z,9.07
2022-09-11T17:29:52.737Z,8.98
2022-09-11T17:32:28.382Z,9.65
2022-09-11T17:34:58.135Z,9.75
2022-09-11T17:37:27.710Z,9.18
2022-09-11T17:39:56.205Z,8.70
2022-09-11T17:42:26.638Z,9.02
2022-09-11T17:44:55.013Z,9.63
2022-09-11T17:47:23.341Z,10.35
2022-09-11T17:49:51.733Z,9.27
2022-09-11T17:52:20.395Z,9.75
2022-09-11T17:54:49.038Z,10.30
2022-09-11T17:57:17.359Z,9.85
2022-09-11T17:59:48.927Z,9.20
2022-09-11T18:02:18.198Z,10.75
2022-09-11T18:04:46.629Z,9.02
2022-09-11T18:07:15.025Z,9.75
2022-09-11T18:09:43.470Z,10.38
2022-09-11T18:12:12.230Z,9.50
2022-09-11T18:14:42.980Z,10.18
2022-09-11T18:17:12.759Z,10.77
2022-09-11T18:19:41.174Z,10.10
2022-09-11T18:22:10.055Z,9.98
2022-09-11T18:24:39.807Z,10.70
2022-09-11T18:27:09.987Z,11.40
2022-09-11T18:29:39.918Z,10.27
2022-09-11T18:32:10.252Z,11.23
2022-09-11T18:34:40.422Z,11.00
2022-09-11T18:37:08.827Z,10.68
2022-09-11T18:39:38.483Z,10.88
2022-09-11T18:42:07.523Z,10.63
2022-09-11T18:44:35.967Z,10.68
2022-09-11T18:47:04.374Z,10.25
2022-09-11T18:49:33.667Z,10.60
2022-09-11T18:52:03.588Z,10.93
2022-09-11T18:54:33.631Z,10.63
2022-09-11T18:57:03.426Z,10.70
2022-09-11T18:59:31.946Z,11.65
2022-09-11T19:02:01.129Z,11.18
2022-09-11T19:04:29.602Z,11.85
2022-09-11T19:06:58.013Z,11.57
2022-09-11T19:09:29.301Z,12.15
2022-09-11T19:12:00.222Z,11.15
2022-09-11T19:14:28.888Z,11.50
2022-09-11T19:16:57.846Z,11.43
2022-09-11T19:19:26.264Z,11.52
2022-09-11T19:21:54.628Z,11.15
2022-09-11T19:24:28.170Z,11.23
2022-09-11T19:27:00.215Z,12.05
2022-09-11T19:29:28.717Z,11.88
2022-09-11T19:31:57.037Z,12.32
2022-09-11T19:34:25.417Z,11.70
2022-09-11T19:36:53.762Z,12.48
2022-09-11T19:39:22.553Z,11.50
2022-09-11T19:41:51.757Z,11.80
2022-09-11T19:44:21.658Z,11.65
2022-09-11T19:46:53.402Z,13.13
2022-09-11T19:49:21.926Z,12.02
2022-09-11T19:51:53.058Z,11.30
2022-09-11T19:54:22.417Z,11.27
2022-09-11T19:56:51.151Z,12.05
2022-09-11T19:59:21.137Z,12.18
2022-09-11T20:01:50.060Z,12.23
2022-09-11T20:04:19.143Z,12.88
2022-09-11T20:09:32.207Z,12.52
2022-09-11T20:12:01.544Z,13.05
2022-09-11T20:14:31.648Z,12.90
2022-09-11T20:17:01.054Z,13.57
2022-09-11T20:19:29.646Z,12.45
2022-09-11T20:21:58.152Z,12.90
2022-09-11T20:24:26.627Z,13.73
2022-09-11T20:26:55.289Z,14.07
2022-09-11T20:29:23.934Z,12.75
2022-09-11T20:31:55.139Z,13.93
2022-09-11T20:34:28.048Z,13.38
2022-09-11T20:37:00.616Z,13.48
2022-09-11T20:39:29.488Z,13.38
2022-09-11T20:41:57.973Z,12.50
2022-09-11T20:44:27.090Z,14.23
2022-09-11T20:46:57.702Z,13.65
2022-09-11T20:49:26.762Z,14.35
2022-09-11T20:51:55.081Z,12.98
2022-09-11T20:54:23.451Z,14.38
2022-09-11T20:56:51.751Z,14.23
2022-09-11T20:59:20.117Z,13.43
2022-09-11T21:01:49.282Z,14.60
2022-09-11T21:04:19.315Z,15.02
2022-09-11T21:06:48.638Z,15.30
2022-09-11T21:09:17.361Z,15.18
2022-09-11T21:11:45.866Z,14.55
2022-09-11T21:14:14.783Z,14.82
2022-09-11T21:16:43.230Z,15.25
2022-09-11T21:19:11.768Z,14.50
2022-09-11T21:21:41.665Z,14.75
2022-09-11T21:24:12.198Z,15.55
2022-09-11T21:26:40.578Z,16.25
2022-09-11T21:29:09.631Z,16.15
2022-09-11T21:31:38.078Z,15.07
2022-09-11T21:34:06.732Z,16.42
2022-09-11T21:36:36.707Z,17.23
2022-09-11T21:39:06.605Z,15.73
2022-09-11T21:41:34.955Z,16.67
2022-09-11T21:44:03.725Z,16.70
2022-09-11T21:46:32.172Z,18.02
2022-09-11T21:49:01.731Z,17.58
2022-09-11T21:51:30.094Z,17.65
2022-09-11T21:54:01.664Z,17.00
2022-09-11T21:56:32.396Z,17.38
2022-09-11T21:59:01.211Z,18.10
2022-09-11T22:01:31.652Z,19.13
2022-09-11T22:04:01.134Z,18.55
2022-09-11T22:06:29.615Z,18.73
2022-09-11T22:08:58.000Z,19.55
2022-09-11T22:11:26.524Z,19.40
2022-09-11T22:13:56.257Z,19.42
2022-09-11T22:16:24.776Z,19.55
2022-09-11T22:18:54.484Z,19.80
2022-09-11T22:21:22.991Z,20.23
2022-09-11T22:23:51.696Z,20.98
2022-09-11T22:26:21.249Z,22.05
2022-09-11T22:28:49.623Z,20.67
2022-09-11T22:31:20.858Z,20.75
2022-09-11T22:33:49.242Z,19.45
2022-09-11T22:36:19.203Z,19.38
2022-09-11T22:38:48.661Z,20.60
2022-09-11T22:41:17.461Z,19.75
2022-09-11T22:43:47.499Z,20.88
2022-09-11T22:46:16.140Z,21.25
2022-09-11T22:48:45.853Z,20.77
2022-09-11T22:51:14.417Z,20.52
2022-09-11T22:53:43.313Z,20.20
2022-09-11T22:56:13.727Z,20.88
2022-09-11T22:58:42.186Z,20.70
2022-09-11T23:01:11.471Z,22.38
2022-09-11T23:03:39.972Z,23.50
2022-09-11T23:06:29.292Z,22.20
2022-09-11T23:09:00.417Z,21.15
2022-09-11T23:11:29.648Z,22.20
2022-09-11T23:13:58.704Z,23.25
2022-09-11T23:16:28.112Z,21.70
2022-09-11T23:18:58.710Z,22.17
2022-09-11T23:21:29.439Z,22.92
2022-09-11T23:23:58.753Z,22.52
2022-09-11T23:26:28.237Z,23.08
2022-09-11T23:28:56.816Z,22.13
2022-09-11T23:31:25.927Z,23.70
2022-09-11T23:33:55.458Z,24.15
2022-09-11T23:36:24.416Z,23.27
2022-09-11T23:38:54.693Z,23.33
2022-09-11T23:41:23.295Z,22.60
2022-09-11T23:43:51.641Z,24.45
2022-09-11T23:46:19.957Z,23.42
2022-09-11T23:48:48.452Z,21.80
2022-09-11T23:51:17.107Z,23.65
2022-09-11T23:53:47.652Z,22.45
2022-09-11T23:56:17.357Z,23.52
2022-09-11T23:58:46.652Z,21.83
